Search for airport 
image banner adimage banner adimage banner ad
image banner ad

CL31 - Caltrans District 7

Located in Los Angeles, United States

ICAO - CL31, IATA -

Data provided by Airmate  

General information

Coordinates: N34°3'5" W118°14'34"
Elevation is 484 feet MSL.
Magnetic variation is 14° East
View others Airports in California

Operational data

Special qualification required
Current time UTC:
Current local time:
METAR: KHHR 211153Z AUTO 00000KT 10SM OVC010 17/14 A2995 RMK AO2 SLP139 T01720144 10172 20172 53008
View NOTAMs / SUP AIP / TFR affecting this airport [VIEW]
Communications frequencies: [VIEW]

Runways:

Airport contact information

Address: Los Angeles United States

Satellite view of CL31